Time;durP1;ratioP1;P1;durP2;ratioP2;P2;SDS_P1;SDS_P2;PMS_P1;PMS_P2;Temp;Humidity;BMP_temperature;BMP_pressure;BME280_temperature;BME280_humidity;BME280_pressure;Samples;Min_cycle;Max_cycle;Signal;HPM_P1;HPM_P2
2022/07/04 00:00:01;;;;;;;3.20;3.00;;;;;;;;;;4990756;28;20087;-66
2022/07/04 00:02:26;;;;;;;3.10;3.00;;;;;;;;;;5006446;28;20564;-65
2022/07/04 00:04:51;;;;;;;3.42;3.22;;;;;;;;;;4991566;28;20029;-66
2022/07/04 00:07:16;;;;;;;3.60;3.28;;;;;;;;;;4989000;28;20026;-65
2022/07/04 00:09:42;;;;;;;3.80;3.60;;;;;;;;;;5002434;28;20185;-65
2022/07/04 00:12:07;;;;;;;3.47;3.17;;;;;;;;;;4990625;28;20416;-65
2022/07/04 00:14:33;;;;;;;3.67;3.40;;;;;;;;;;4989314;28;20046;-65
2022/07/04 00:16:58;;;;;;;3.35;3.15;;;;;;;;;;4991446;28;20033;-65
2022/07/04 00:19:24;;;;;;;3.67;3.47;;;;;;;;;;4987960;28;20026;-65
2022/07/04 00:21:49;;;;;;;3.67;3.47;;;;;;;;;;4990326;28;20088;-65
2022/07/04 00:24:14;;;;;;;4.10;3.72;;;;;;;;;;4990728;28;20080;-65
2022/07/04 00:26:39;;;;;;;4.07;3.80;;;;;;;;;;4989844;28;20030;-65
2022/07/04 00:29:05;;;;;;;3.40;3.20;;;;;;;;;;4988839;28;20048;-65
2022/07/04 00:31:30;;;;;;;3.42;3.13;;;;;;;;;;4988806;28;20026;-65
2022/07/04 00:33:55;;;;;;;3.90;3.60;;;;;;;;;;4988670;28;20212;-65
2022/07/04 00:36:21;;;;;;;3.20;3.00;;;;;;;;;;4987951;28;20514;-65
2022/07/04 00:38:46;;;;;;;3.40;3.20;;;;;;;;;;4980969;28;20025;-65
2022/07/04 00:41:11;;;;;;;3.85;3.55;;;;;;;;;;4990273;28;20042;-65
2022/07/04 00:43:36;;;;;;;3.75;3.47;;;;;;;;;;4988873;28;20030;-65
2022/07/04 00:46:07;;;;;;;3.78;3.50;;;;;;;;;;4987800;28;20582;-65
2022/07/04 00:48:33;;;;;;;3.97;3.78;;;;;;;;;;4989108;28;20132;-65
2022/07/04 00:50:58;;;;;;;3.85;3.65;;;;;;;;;;4989030;28;20535;-65
2022/07/04 00:53:24;;;;;;;3.80;3.53;;;;;;;;;;4989272;28;20655;-65
2022/07/04 00:55:50;;;;;;;3.13;3.03;;;;;;;;;;4988370;28;20038;-64
2022/07/04 00:58:18;;;;;;;4.28;3.33;;;;;;;;;;4989127;28;20030;-65
2022/07/04 01:00:44;;;;;;;4.10;3.80;;;;;;;;;;4988666;28;20030;-65
2022/07/04 01:03:09;;;;;;;4.30;3.90;;;;;;;;;;4989527;28;20085;-65
2022/07/04 01:05:34;;;;;;;5.68;3.40;;;;;;;;;;4988587;28;20018;-66
2022/07/04 01:07:59;;;;;;;4.45;3.90;;;;;;;;;;4988570;28;20034;-65
2022/07/04 01:10:26;;;;;;;4.00;3.70;;;;;;;;;;4987956;28;20074;-65
2022/07/04 01:12:51;;;;;;;3.65;3.35;;;;;;;;;;4988628;28;20647;-65
2022/07/04 01:15:16;;;;;;;3.60;3.30;;;;;;;;;;4988003;28;20476;-65
2022/07/04 01:17:41;;;;;;;3.85;3.58;;;;;;;;;;4988304;28;20131;-65
2022/07/04 01:20:10;;;;;;;3.70;3.25;;;;;;;;;;4988670;28;20494;-65
2022/07/04 01:22:35;;;;;;;4.30;3.80;;;;;;;;;;4987038;28;20684;-65
2022/07/04 01:25:01;;;;;;;3.85;3.65;;;;;;;;;;4988996;28;20026;-65
2022/07/04 01:27:26;;;;;;;3.72;3.42;;;;;;;;;;4987857;28;20030;-65
2022/07/04 01:29:51;;;;;;;4.22;3.97;;;;;;;;;;4988279;28;20034;-65
2022/07/04 01:32:17;;;;;;;3.78;3.58;;;;;;;;;;4988496;28;20022;-65
2022/07/04 01:34:42;;;;;;;3.80;3.50;;;;;;;;;;4988733;28;20030;-66
2022/07/04 01:37:07;;;;;;;3.83;3.42;;;;;;;;;;4989091;28;20023;-67
2022/07/04 01:39:33;;;;;;;4.05;3.83;;;;;;;;;;4987154;28;20022;-65
2022/07/04 01:41:58;;;;;;;4.45;4.05;;;;;;;;;;4989428;28;20041;-66
2022/07/04 01:44:23;;;;;;;3.85;3.53;;;;;;;;;;4988003;28;20117;-65
2022/07/04 01:46:48;;;;;;;3.45;3.25;;;;;;;;;;4987569;28;20019;-64
2022/07/04 01:49:14;;;;;;;4.30;3.97;;;;;;;;;;5005015;28;20038;-64
2022/07/04 01:51:45;;;;;;;4.22;3.97;;;;;;;;;;4987857;28;20034;-65
2022/07/04 01:54:11;;;;;;;3.95;3.75;;;;;;;;;;4987510;28;20036;-63
2022/07/04 01:56:36;;;;;;;3.67;3.47;;;;;;;;;;4991643;28;20033;-64
2022/07/04 01:59:03;;;;;;;3.90;3.60;;;;;;;;;;4985884;28;20080;-65
2022/07/04 02:01:32;;;;;;;3.90;3.60;;;;;;;;;;4987992;28;20062;-65
2022/07/04 02:03:58;;;;;;;4.13;3.85;;;;;;;;;;4989772;28;20030;-65
2022/07/04 02:06:23;;;;;;;4.00;3.70;;;;;;;;;;4988038;28;20037;-65
2022/07/04 02:13:00;;;;;;;4.07;3.75;;;;;;;;;;4989467;28;20056;-65
2022/07/04 02:14:17;;;;;;;4.30;4.00;;;;;;;;;;4987749;28;20059;-64
2022/07/04 02:16:43;;;;;;;4.32;3.83;;;;;;;;;;4986742;28;20174;-64
2022/07/04 02:19:08;;;;;;;3.65;3.42;;;;;;;;;;4986524;28;20061;-64
2022/07/04 02:21:33;;;;;;;3.88;3.58;;;;;;;;;;4986943;28;20085;-65
2022/07/04 02:23:58;;;;;;;3.50;3.30;;;;;;;;;;4987577;28;20019;-64
2022/07/04 02:26:23;;;;;;;3.75;3.55;;;;;;;;;;4988602;28;20055;-64
2022/07/04 02:28:49;;;;;;;3.63;3.20;;;;;;;;;;4987687;28;20488;-65
2022/07/04 02:31:14;;;;;;;3.75;3.55;;;;;;;;;;4989129;28;20038;-65
2022/07/04 02:33:39;;;;;;;4.13;3.92;;;;;;;;;;4989147;28;20022;-65
2022/07/04 02:36:04;;;;;;;3.97;3.67;;;;;;;;;;4987803;28;20062;-65
2022/07/04 02:38:30;;;;;;;4.20;3.80;;;;;;;;;;4987564;28;20022;-65
2022/07/04 02:40:55;;;;;;;3.33;3.20;;;;;;;;;;4988280;28;20084;-65
2022/07/04 02:43:20;;;;;;;3.90;3.60;;;;;;;;;;4989090;28;20065;-64
2022/07/04 02:45:45;;;;;;;3.53;3.33;;;;;;;;;;4970571;28;20536;-65
2022/07/04 02:48:11;;;;;;;4.00;3.55;;;;;;;;;;4988292;28;20045;-66
2022/07/04 02:50:36;;;;;;;3.60;3.30;;;;;;;;;;4988587;28;20030;-65
2022/07/04 02:53:01;;;;;;;3.72;3.22;;;;;;;;;;4989318;28;20034;-64
2022/07/04 02:55:26;;;;;;;3.50;3.30;;;;;;;;;;4987633;28;20049;-65
2022/07/04 02:57:52;;;;;;;3.88;3.40;;;;;;;;;;4985752;28;20021;-64
2022/07/04 03:00:17;;;;;;;3.42;3.17;;;;;;;;;;4988447;28;20030;-64
2022/07/04 03:02:42;;;;;;;4.13;2.92;;;;;;;;;;4987658;28;20481;-64
2022/07/04 03:05:08;;;;;;;4.75;3.50;;;;;;;;;;4989564;28;20038;-63
2022/07/04 03:07:33;;;;;;;3.47;3.28;;;;;;;;;;4990397;28;20046;-64
2022/07/04 03:09:58;;;;;;;5.00;3.65;;;;;;;;;;4991573;28;20471;-65
2022/07/04 03:12:23;;;;;;;4.88;3.72;;;;;;;;;;4990577;28;20449;-64
2022/07/04 03:14:49;;;;;;;3.53;3.33;;;;;;;;;;4993169;28;20030;-65
2022/07/04 03:17:14;;;;;;;3.38;3.15;;;;;;;;;;4991977;28;20455;-63
2022/07/04 03:19:39;;;;;;;3.80;3.60;;;;;;;;;;4991817;28;20057;-64
2022/07/04 03:22:04;;;;;;;3.53;3.33;;;;;;;;;;4990923;28;20034;-64
2022/07/04 03:24:30;;;;;;;3.75;3.55;;;;;;;;;;4989110;28;20546;-65
2022/07/04 03:26:55;;;;;;;3.80;3.45;;;;;;;;;;4990020;28;20025;-65
2022/07/04 03:29:20;;;;;;;5.22;4.43;;;;;;;;;;4990626;28;20038;-65
2022/07/04 03:31:45;;;;;;;4.28;3.70;;;;;;;;;;4989894;28;20061;-65
2022/07/04 03:34:11;;;;;;;6.93;3.92;;;;;;;;;;4990899;28;20026;-65
2022/07/04 03:36:36;;;;;;;4.00;3.70;;;;;;;;;;4990214;28;20412;-65
2022/07/04 03:39:01;;;;;;;4.22;3.92;;;;;;;;;;4991161;28;20022;-65
2022/07/04 03:41:27;;;;;;;5.70;3.20;;;;;;;;;;4989516;28;20153;-65
2022/07/04 03:43:52;;;;;;;3.40;3.20;;;;;;;;;;4991280;28;20137;-66
2022/07/04 03:46:17;;;;;;;4.50;4.10;;;;;;;;;;4990099;28;20125;-65
2022/07/04 03:48:43;;;;;;;3.95;3.58;;;;;;;;;;4991056;28;20062;-65
2022/07/04 03:51:08;;;;;;;3.35;3.15;;;;;;;;;;4990718;28;20546;-65
2022/07/04 03:53:33;;;;;;;3.67;3.47;;;;;;;;;;4991827;28;20030;-65
2022/07/04 03:55:59;;;;;;;6.53;3.85;;;;;;;;;;4990169;28;20053;-66
2022/07/04 03:58:24;;;;;;;3.58;3.38;;;;;;;;;;4989686;28;20116;-65
2022/07/04 04:00:49;;;;;;;5.30;4.32;;;;;;;;;;4991916;28;20026;-66
2022/07/04 04:05:59;;;;;;;4.10;3.90;;;;;;;;;;4989461;28;20091;-66
2022/07/04 04:08:24;;;;;;;4.25;3.97;;;;;;;;;;4972314;28;20518;-66
2022/07/04 04:10:51;;;;;;;7.30;3.65;;;;;;;;;;4990370;28;20034;-65
2022/07/04 04:13:16;;;;;;;4.57;4.18;;;;;;;;;;4988818;28;20038;-66
2022/07/04 04:15:41;;;;;;;3.40;3.25;;;;;;;;;;4991124;28;20347;-66
2022/07/04 04:18:07;;;;;;;3.60;3.40;;;;;;;;;;4989918;28;20475;-66
2022/07/04 04:20:32;;;;;;;3.33;3.13;;;;;;;;;;4989087;28;20125;-66
2022/07/04 04:22:57;;;;;;;4.28;3.50;;;;;;;;;;4991053;28;20487;-66
2022/07/04 04:25:22;;;;;;;3.97;3.22;;;;;;;;;;4990174;28;20435;-65
2022/07/04 04:27:47;;;;;;;3.95;3.33;;;;;;;;;;4989007;28;20031;-66
2022/07/04 04:30:13;;;;;;;3.63;3.22;;;;;;;;;;4991059;28;20128;-66
2022/07/04 04:32:38;;;;;;;2.75;2.55;;;;;;;;;;4989143;28;20030;-65
2022/07/04 04:35:03;;;;;;;3.05;2.85;;;;;;;;;;4989232;28;20524;-65
2022/07/04 04:37:29;;;;;;;3.22;2.55;;;;;;;;;;4989419;28;20038;-66
2022/07/04 04:39:54;;;;;;;3.55;3.25;;;;;;;;;;4988113;28;20076;-65
2022/07/04 04:42:19;;;;;;;2.75;2.55;;;;;;;;;;4988286;28;20053;-65
2022/07/04 04:44:44;;;;;;;2.50;2.40;;;;;;;;;;4988574;28;20037;-66
2022/07/04 04:47:10;;;;;;;4.22;2.70;;;;;;;;;;4988411;28;20030;-66
2022/07/04 04:49:35;;;;;;;3.28;3.00;;;;;;;;;;4989656;28;20531;-66
2022/07/04 04:52:00;;;;;;;2.88;2.67;;;;;;;;;;4988707;28;20042;-65
2022/07/04 04:54:26;;;;;;;3.05;2.85;;;;;;;;;;4987198;28;20511;-65
2022/07/04 04:56:51;;;;;;;3.38;3.17;;;;;;;;;;4989894;28;20042;-66
2022/07/04 04:59:16;;;;;;;3.00;2.80;;;;;;;;;;4988965;28;20518;-66
2022/07/04 05:01:41;;;;;;;3.20;2.90;;;;;;;;;;4989458;28;20508;-66
2022/07/04 05:04:07;;;;;;;2.97;2.88;;;;;;;;;;4987744;28;20037;-66
2022/07/04 05:06:32;;;;;;;2.65;2.55;;;;;;;;;;4988497;28;20147;-66
2022/07/04 05:08:57;;;;;;;3.33;3.10;;;;;;;;;;4989135;28;20050;-66
2022/07/04 05:11:23;;;;;;;2.97;2.85;;;;;;;;;;4989456;28;20080;-66
2022/07/04 05:13:48;;;;;;;3.08;2.88;;;;;;;;;;4989159;28;20058;-65
2022/07/04 05:16:13;;;;;;;2.60;2.50;;;;;;;;;;4989926;28;20030;-68
2022/07/04 05:18:38;;;;;;;2.78;2.58;;;;;;;;;;4988299;28;20081;-65
2022/07/04 05:21:04;;;;;;;3.10;2.88;;;;;;;;;;4987862;28;20110;-66
2022/07/04 05:23:29;;;;;;;3.30;3.00;;;;;;;;;;4987566;28;20050;-65
2022/07/04 05:25:54;;;;;;;3.28;2.97;;;;;;;;;;4987798;28;20031;-64
2022/07/04 05:28:20;;;;;;;3.47;3.17;;;;;;;;;;4988932;28;20027;-65
2022/07/04 05:30:45;;;;;;;3.38;3.08;;;;;;;;;;4988295;28;20038;-65
2022/07/04 05:33:11;;;;;;;3.00;2.80;;;;;;;;;;4987726;28;20591;-65
2022/07/04 05:35:37;;;;;;;3.53;3.28;;;;;;;;;;4989180;28;20149;-65
2022/07/04 05:38:03;;;;;;;3.25;3.05;;;;;;;;;;4988671;28;20026;-65
2022/07/04 05:40:28;;;;;;;3.33;3.13;;;;;;;;;;4988799;28;20053;-66
2022/07/04 05:42:54;;;;;;;3.05;2.72;;;;;;;;;;4987727;28;20057;-66
2022/07/04 05:45:19;;;;;;;3.03;2.83;;;;;;;;;;4987207;28;20542;-66
2022/07/04 05:47:44;;;;;;;2.85;2.72;;;;;;;;;;4980957;28;20026;-65
2022/07/04 05:50:10;;;;;;;3.38;3.08;;;;;;;;;;4989178;28;20245;-65
2022/07/04 05:52:35;;;;;;;4.80;3.35;;;;;;;;;;4988950;28;20029;-66
2022/07/04 05:55:00;;;;;;;5.13;3.47;;;;;;;;;;4986974;28;20405;-66
2022/07/04 05:57:28;;;;;;;3.95;3.50;;;;;;;;;;4988231;28;20034;-65
2022/07/04 05:59:54;;;;;;;3.72;3.50;;;;;;;;;;4988426;28;20034;-66
2022/07/04 06:02:19;;;;;;;3.72;3.40;;;;;;;;;;4988091;28;20038;-66
2022/07/04 06:04:44;;;;;;;3.55;3.35;;;;;;;;;;4988372;28;20084;-65
2022/07/04 06:07:09;;;;;;;4.15;3.47;;;;;;;;;;4987561;28;20354;-65
2022/07/04 06:09:35;;;;;;;3.40;3.08;;;;;;;;;;4989559;28;20078;-65
2022/07/04 06:12:00;;;;;;;3.30;3.10;;;;;;;;;;5003128;28;20034;-65
2022/07/04 06:14:26;;;;;;;3.45;3.15;;;;;;;;;;4988104;28;20117;-65
2022/07/04 06:16:51;;;;;;;3.75;2.92;;;;;;;;;;4988609;28;20034;-65
2022/07/04 06:19:16;;;;;;;3.78;3.45;;;;;;;;;;4988103;28;20498;-64
2022/07/04 06:21:41;;;;;;;4.93;3.25;;;;;;;;;;4986269;28;20414;-65
2022/07/04 06:24:07;;;;;;;4.07;3.20;;;;;;;;;;4988014;28;20034;-64
2022/07/04 06:26:32;;;;;;;3.20;3.00;;;;;;;;;;4988376;28;20388;-65
2022/07/04 06:28:57;;;;;;;3.25;3.10;;;;;;;;;;4986533;28;20345;-64
2022/07/04 06:31:23;;;;;;;5.25;3.67;;;;;;;;;;4987827;28;20284;-65
2022/07/04 06:36:32;;;;;;;5.88;4.10;;;;;;;;;;4988243;28;20041;-65
2022/07/04 06:38:57;;;;;;;3.33;3.13;;;;;;;;;;4991845;28;20029;-65
2022/07/04 06:41:23;;;;;;;3.20;3.00;;;;;;;;;;4990887;28;20856;-65
2022/07/04 06:43:48;;;;;;;3.78;3.40;;;;;;;;;;4991915;28;20036;-66
2022/07/04 06:46:13;;;;;;;3.50;3.30;;;;;;;;;;4990914;28;20408;-66
2022/07/04 06:48:38;;;;;;;4.47;4.07;;;;;;;;;;4990682;28;20034;-65
2022/07/04 06:51:04;;;;;;;3.35;3.05;;;;;;;;;;4991547;28;20037;-65
2022/07/04 06:53:29;;;;;;;5.25;4.47;;;;;;;;;;4993694;28;20030;-65
2022/07/04 06:55:54;;;;;;;3.70;3.50;;;;;;;;;;4977483;28;20030;-65
2022/07/04 06:58:19;;;;;;;4.05;3.35;;;;;;;;;;4991418;28;20113;-65
2022/07/04 07:00:45;;;;;;;3.63;3.33;;;;;;;;;;4992273;28;20049;-65
2022/07/04 07:03:10;;;;;;;3.47;3.28;;;;;;;;;;4991250;28;20043;-64
2022/07/04 07:05:36;;;;;;;4.45;4.07;;;;;;;;;;5005688;28;20037;-66
2022/07/04 07:08:02;;;;;;;3.50;3.30;;;;;;;;;;4991691;28;20030;-65
2022/07/04 07:10:28;;;;;;;3.45;3.25;;;;;;;;;;4990483;28;20465;-65
2022/07/04 07:12:54;;;;;;;4.05;3.75;;;;;;;;;;4990721;28;20479;-66
2022/07/04 07:15:20;;;;;;;4.78;3.35;;;;;;;;;;4993235;28;20046;-65
2022/07/04 07:17:45;;;;;;;4.45;4.10;;;;;;;;;;4992291;28;20030;-66
2022/07/04 07:20:11;;;;;;;3.50;3.20;;;;;;;;;;4990695;28;20058;-65
2022/07/04 07:22:36;;;;;;;4.15;3.75;;;;;;;;;;4991999;28;20050;-65
2022/07/04 07:25:02;;;;;;;3.55;3.25;;;;;;;;;;4990838;28;20396;-64
2022/07/04 07:27:27;;;;;;;4.90;3.80;;;;;;;;;;4990017;28;20041;-65
2022/07/04 07:29:52;;;;;;;3.97;3.47;;;;;;;;;;4989938;28;20443;-65
2022/07/04 07:32:18;;;;;;;4.03;3.65;;;;;;;;;;4991236;28;20045;-65
2022/07/04 07:34:43;;;;;;;3.97;3.75;;;;;;;;;;4991823;28;20484;-64
2022/07/04 07:37:08;;;;;;;3.45;3.22;;;;;;;;;;4990367;28;20034;-64
2022/07/04 07:39:34;;;;;;;4.15;3.75;;;;;;;;;;4990379;28;20464;-65
2022/07/04 07:41:59;;;;;;;5.13;3.17;;;;;;;;;;4990877;28;20045;-64
2022/07/04 07:44:24;;;;;;;3.80;3.58;;;;;;;;;;4990871;28;20471;-65
2022/07/04 07:46:49;;;;;;;3.88;3.58;;;;;;;;;;4988321;28;20022;-65
2022/07/04 07:49:15;;;;;;;4.07;3.03;;;;;;;;;;4987845;28;20032;-64
2022/07/04 07:51:40;;;;;;;3.97;3.67;;;;;;;;;;4990859;28;20061;-65
2022/07/04 07:54:05;;;;;;;4.22;3.90;;;;;;;;;;4989545;28;20034;-65
2022/07/04 07:56:31;;;;;;;3.40;3.17;;;;;;;;;;4989836;28;20026;-65
2022/07/04 07:58:56;;;;;;;3.15;3.05;;;;;;;;;;4989653;28;20034;-66
2022/07/04 08:01:21;;;;;;;3.30;3.17;;;;;;;;;;4982815;28;20049;-65
2022/07/04 08:06:31;;;;;;;3.42;3.33;;;;;;;;;;4988801;28;20084;-65
2022/07/04 08:08:56;;;;;;;3.72;3.50;;;;;;;;;;4987771;28;20472;-65
2022/07/04 08:11:22;;;;;;;3.38;3.17;;;;;;;;;;4989385;28;20042;-66
2022/07/04 08:13:47;;;;;;;2.85;2.75;;;;;;;;;;4989997;28;20031;-64
2022/07/04 08:16:12;;;;;;;3.33;2.65;;;;;;;;;;4988134;28;20473;-64
2022/07/04 08:18:38;;;;;;;3.35;3.08;;;;;;;;;;4989649;28;20608;-66
2022/07/04 08:21:03;;;;;;;3.42;3.13;;;;;;;;;;4990470;28;20027;-65
2022/07/04 08:23:30;;;;;;;3.78;3.58;;;;;;;;;;4990666;28;20030;-66
2022/07/04 08:25:55;;;;;;;3.58;3.38;;;;;;;;;;4989826;28;20030;-66
2022/07/04 08:28:20;;;;;;;3.65;3.20;;;;;;;;;;4988642;28;20512;-65
2022/07/04 08:30:45;;;;;;;3.70;3.50;;;;;;;;;;4990873;28;20264;-65
2022/07/04 08:33:11;;;;;;;3.20;3.10;;;;;;;;;;4989269;28;20192;-66
2022/07/04 08:35:36;;;;;;;3.72;3.40;;;;;;;;;;4989963;28;20034;-65
2022/07/04 08:38:01;;;;;;;3.38;3.20;;;;;;;;;;4988957;28;20325;-65
2022/07/04 08:40:27;;;;;;;5.95;3.15;;;;;;;;;;4989360;28;20035;-65
2022/07/04 08:42:53;;;;;;;4.00;3.08;;;;;;;;;;4988658;28;20065;-64
2022/07/04 08:45:24;;;;;;;3.47;3.30;;;;;;;;;;4989533;28;20038;-65
2022/07/04 08:47:52;;;;;;;3.30;3.10;;;;;;;;;;4988734;28;20034;-64
2022/07/04 08:50:25;;;;;;;3.50;3.30;;;;;;;;;;4989748;28;20030;-65
2022/07/04 08:52:55;;;;;;;3.42;3.10;;;;;;;;;;4989286;28;20053;-65
2022/07/04 09:00:50;;;;;;;3.87;3.50;;;;;;;;;;4989013;28;20613;-65
2022/07/04 09:03:16;;;;;;;4.18;3.42;;;;;;;;;;4988348;28;20018;-64
2022/07/04 09:05:41;;;;;;;4.30;3.30;;;;;;;;;;4989673;28;20411;-65
2022/07/04 09:08:06;;;;;;;4.35;3.97;;;;;;;;;;4989000;28;20042;-65
2022/07/04 09:10:32;;;;;;;5.47;4.25;;;;;;;;;;4989272;28;20050;-65
2022/07/04 09:12:57;;;;;;;4.20;3.83;;;;;;;;;;4990327;28;20030;-64
2022/07/04 09:15:22;;;;;;;4.07;3.78;;;;;;;;;;4988778;28;20080;-65
2022/07/04 09:17:48;;;;;;;5.05;3.90;;;;;;;;;;4988503;28;20030;-65
2022/07/04 09:20:18;;;;;;;6.60;4.43;;;;;;;;;;4987518;28;20072;-65
2022/07/04 09:22:44;;;;;;;4.47;3.70;;;;;;;;;;4990795;28;20342;-65
2022/07/04 09:25:12;;;;;;;4.22;3.88;;;;;;;;;;4988301;28;20508;-65
2022/07/04 09:27:42;;;;;;;6.32;3.80;;;;;;;;;;4989758;28;20026;-65
2022/07/04 09:30:08;;;;;;;4.20;3.90;;;;;;;;;;4989103;28;20036;-66
2022/07/04 09:32:37;;;;;;;6.20;5.60;;;;;;;;;;4990067;28;20046;-65
2022/07/04 09:35:03;;;;;;;6.07;5.22;;;;;;;;;;4986548;28;20373;-66
2022/07/04 09:37:38;;;;;;;5.28;4.45;;;;;;;;;;4987403;28;20508;-64
2022/07/04 09:40:04;;;;;;;8.73;5.10;;;;;;;;;;4987848;28;20517;-65
2022/07/04 09:42:39;;;;;;;5.30;4.80;;;;;;;;;;4988121;28;20805;-65
2022/07/04 09:45:06;;;;;;;6.95;5.32;;;;;;;;;;4987971;28;20077;-65
2022/07/04 09:47:31;;;;;;;5.43;4.93;;;;;;;;;;4988258;28;20057;-64
2022/07/04 09:50:01;;;;;;;7.20;4.75;;;;;;;;;;4988242;28;20165;-65
2022/07/04 09:52:27;;;;;;;5.68;4.88;;;;;;;;;;4988167;28;20031;-63
2022/07/04 09:54:56;;;;;;;6.07;5.07;;;;;;;;;;4987768;28;21075;-64
2022/07/04 09:57:22;;;;;;;4.82;4.43;;;;;;;;;;4988808;28;20400;-66
2022/07/04 09:59:47;;;;;;;6.43;4.93;;;;;;;;;;4987466;28;20026;-65
2022/07/04 10:02:14;;;;;;;4.80;4.38;;;;;;;;;;4987976;28;20064;-65
2022/07/04 10:04:43;;;;;;;5.90;5.28;;;;;;;;;;4988475;28;20109;-66
2022/07/04 10:07:08;;;;;;;5.03;4.60;;;;;;;;;;4989804;28;20061;-66
2022/07/04 10:09:34;;;;;;;5.15;4.35;;;;;;;;;;4987952;28;20066;-66
2022/07/04 10:11:59;;;;;;;4.28;4.05;;;;;;;;;;4990655;28;20725;-65
2022/07/04 10:14:24;;;;;;;5.80;4.18;;;;;;;;;;4992731;28;20145;-65
2022/07/04 10:16:50;;;;;;;4.68;4.38;;;;;;;;;;4991635;28;20504;-66
2022/07/04 10:19:16;;;;;;;4.57;4.18;;;;;;;;;;4991846;28;20042;-66
2022/07/04 10:21:41;;;;;;;4.78;4.38;;;;;;;;;;4990920;28;20072;-65
2022/07/04 10:24:07;;;;;;;4.78;4.43;;;;;;;;;;4992818;28;20106;-65
2022/07/04 10:26:32;;;;;;;6.93;4.97;;;;;;;;;;4991159;28;20586;-65
2022/07/04 10:28:58;;;;;;;5.25;4.85;;;;;;;;;;4991831;28;20440;-65
2022/07/04 10:31:25;;;;;;;6.22;5.22;;;;;;;;;;4992029;28;20030;-65
2022/07/04 10:33:50;;;;;;;6.40;4.78;;;;;;;;;;4992830;28;20030;-65
2022/07/04 10:36:17;;;;;;;4.97;4.47;;;;;;;;;;4991338;28;20714;-65
2022/07/04 10:38:48;;;;;;;4.93;4.40;;;;;;;;;;4991388;28;20022;-66
2022/07/04 10:41:14;;;;;;;5.00;4.60;;;;;;;;;;4989607;28;20018;-64
2022/07/04 10:43:49;;;;;;;4.60;4.30;;;;;;;;;;4992283;28;20091;-64
2022/07/04 10:46:14;;;;;;;;;;;;;;;;;;4993291;28;20137;-65
2022/07/04 10:48:49;;;;;;;4.43;4.13;;;;;;;;;;4991019;28;19909;-65
2022/07/04 10:51:15;;;;;;;4.88;3.55;;;;;;;;;;4990964;28;20469;-65
2022/07/04 10:54:00;;;;;;;3.60;3.40;;;;;;;;;;4992155;28;20076;-65
2022/07/04 10:56:25;;;;;;;5.63;3.45;;;;;;;;;;4990731;28;20058;-65
2022/07/04 10:58:50;;;;;;;3.90;3.70;;;;;;;;;;4991610;28;20122;-65
2022/07/04 11:01:18;;;;;;;3.78;3.47;;;;;;;;;;4991609;28;20026;-65
2022/07/04 11:03:45;;;;;;;4.30;4.00;;;;;;;;;;4991578;28;20030;-66
2022/07/04 11:06:28;;;;;;;5.18;4.07;;;;;;;;;;4991686;28;20534;-65
2022/07/04 11:09:17;;;;;;;4.13;3.83;;;;;;;;;;4990561;28;20137;-66
2022/07/04 11:11:48;;;;;;;4.30;3.95;;;;;;;;;;4980544;28;20042;-65
2022/07/04 11:14:32;;;;;;;5.05;4.40;;;;;;;;;;4992215;28;20026;-65
2022/07/04 11:16:57;;;;;;;4.80;4.00;;;;;;;;;;4990083;28;20027;-64
2022/07/04 11:19:23;;;;;;;4.07;3.80;;;;;;;;;;4989420;28;20030;-65
2022/07/04 11:21:48;;;;;;;6.43;4.70;;;;;;;;;;4990693;28;20034;-66
2022/07/04 11:24:13;;;;;;;4.85;4.55;;;;;;;;;;4989469;28;20544;-66
2022/07/04 11:26:38;;;;;;;4.57;4.18;;;;;;;;;;4992425;28;20117;-66
2022/07/04 11:29:07;;;;;;;5.10;4.70;;;;;;;;;;4992721;28;20042;-66
2022/07/04 11:31:39;;;;;;;4.38;4.07;;;;;;;;;;4990272;28;20496;-65
2022/07/04 11:34:04;;;;;;;4.78;4.47;;;;;;;;;;4990492;28;20081;-66
2022/07/04 11:36:30;;;;;;;4.70;4.40;;;;;;;;;;4990908;28;20030;-66
2022/07/04 11:38:56;;;;;;;4.38;4.18;;;;;;;;;;4988854;28;20034;-67
2022/07/04 11:47:06;;;;;;;4.10;3.80;;;;;;;;;;4989658;28;20033;-66
2022/07/04 11:49:31;;;;;;;4.43;4.13;;;;;;;;;;4989724;28;20133;-67
2022/07/04 11:51:57;;;;;;;4.88;4.45;;;;;;;;;;5004213;28;20048;-66
2022/07/04 11:54:22;;;;;;;4.22;4.03;;;;;;;;;;4988762;28;20043;-66
2022/07/04 11:56:47;;;;;;;6.07;4.90;;;;;;;;;;4990633;28;20109;-65
2022/07/04 11:59:14;;;;;;;4.85;4.50;;;;;;;;;;4990854;28;20034;-66
2022/07/04 12:01:40;;;;;;;4.72;4.43;;;;;;;;;;4987719;28;20049;-65
2022/07/04 12:04:18;;;;;;;4.55;4.20;;;;;;;;;;4989178;28;20038;-66
2022/07/04 12:06:44;;;;;;;5.50;5.00;;;;;;;;;;4989309;28;20046;-66
2022/07/04 12:09:09;;;;;;;3.90;3.70;;;;;;;;;;4990274;28;20137;-65
2022/07/04 12:11:50;;;;;;;3.88;3.60;;;;;;;;;;4989299;28;20034;-65
2022/07/04 12:14:15;;;;;;;5.55;5.05;;;;;;;;;;4989169;28;20026;-65
2022/07/04 12:16:40;;;;;;;4.82;4.47;;;;;;;;;;4990957;28;20485;-66
2022/07/04 12:19:10;;;;;;;5.70;5.13;;;;;;;;;;4973107;28;20041;-66
2022/07/04 12:21:35;;;;;;;5.03;4.63;;;;;;;;;;4990903;28;20031;-65
2022/07/04 12:24:02;;;;;;;4.80;4.40;;;;;;;;;;5004344;28;20030;-66
2022/07/04 12:26:28;;;;;;;4.70;4.40;;;;;;;;;;4989614;28;20381;-66
2022/07/04 12:28:53;;;;;;;4.85;4.30;;;;;;;;;;4989077;28;20034;-66
2022/07/04 12:31:18;;;;;;;5.07;4.78;;;;;;;;;;4989742;28;20153;-66
2022/07/04 12:33:54;;;;;;;4.72;4.43;;;;;;;;;;4988884;28;20026;-65
2022/07/04 12:36:19;;;;;;;6.05;5.38;;;;;;;;;;4988400;28;20121;-66
2022/07/04 12:38:44;;;;;;;4.03;3.83;;;;;;;;;;4990258;28;20034;-66
2022/07/04 12:41:15;;;;;;;4.13;3.92;;;;;;;;;;4988024;28;20058;-66
2022/07/04 12:43:43;;;;;;;4.35;4.05;;;;;;;;;;4989077;28;20034;-66
2022/07/04 12:46:08;;;;;;;4.28;4.00;;;;;;;;;;4989734;28;20022;-66
2022/07/04 12:48:34;;;;;;;3.70;3.45;;;;;;;;;;4989689;28;20050;-66
2022/07/04 12:51:13;;;;;;;5.20;3.75;;;;;;;;;;4990578;28;20030;-65
2022/07/04 12:53:39;;;;;;;3.72;3.50;;;;;;;;;;4990141;28;20091;-66
2022/07/04 12:56:05;;;;;;;3.53;3.33;;;;;;;;;;4986982;28;20586;-66
2022/07/04 12:58:31;;;;;;;3.35;3.15;;;;;;;;;;5004327;28;20037;-66
2022/07/04 13:00:56;;;;;;;3.70;3.50;;;;;;;;;;4990115;28;20027;-65
2022/07/04 13:03:21;;;;;;;3.85;3.55;;;;;;;;;;4987262;28;20038;-66
2022/07/04 13:05:46;;;;;;;3.35;3.25;;;;;;;;;;4987544;28;20485;-68
2022/07/04 13:08:12;;;;;;;4.18;3.97;;;;;;;;;;4989923;28;20165;-65
2022/07/04 13:10:37;;;;;;;3.88;3.58;;;;;;;;;;4988328;28;20057;-65
2022/07/04 13:13:02;;;;;;;3.45;3.25;;;;;;;;;;4988934;28;20101;-65
2022/07/04 13:15:28;;;;;;;3.45;3.25;;;;;;;;;;4988862;28;20535;-65
2022/07/04 13:17:53;;;;;;;4.10;3.70;;;;;;;;;;4987467;28;20053;-65
2022/07/04 13:20:19;;;;;;;3.72;3.53;;;;;;;;;;4988744;28;20026;-66
2022/07/04 13:22:44;;;;;;;4.43;4.10;;;;;;;;;;4988831;28;20031;-67
2022/07/04 13:25:10;;;;;;;6.32;4.60;;;;;;;;;;5005854;28;20125;-66
2022/07/04 13:27:35;;;;;;;5.18;4.70;;;;;;;;;;4987722;28;20080;-66
2022/07/04 13:30:00;;;;;;;6.38;5.85;;;;;;;;;;4989808;28;20034;-66
2022/07/04 13:32:25;;;;;;;4.78;4.47;;;;;;;;;;4989877;28;20476;-66
2022/07/04 13:34:51;;;;;;;4.90;4.60;;;;;;;;;;4986551;28;20144;-65
2022/07/04 13:37:17;;;;;;;4.40;4.10;;;;;;;;;;4987872;28;20034;-66
2022/07/04 13:39:42;;;;;;;5.18;4.38;;;;;;;;;;4988495;28;20026;-66
2022/07/04 13:42:08;;;;;;;4.32;4.13;;;;;;;;;;4988660;28;20041;-65
2022/07/04 13:44:34;;;;;;;4.45;4.15;;;;;;;;;;4989180;28;20109;-65
2022/07/04 13:46:59;;;;;;;5.80;4.53;;;;;;;;;;4988326;28;20043;-66
2022/07/04 13:49:25;;;;;;;5.30;4.97;;;;;;;;;;4989086;28;20137;-65
2022/07/04 13:51:50;;;;;;;11.48;5.07;;;;;;;;;;4987171;28;20488;-66
2022/07/04 13:54:16;;;;;;;10.98;6.95;;;;;;;;;;4985107;28;20061;-66
2022/07/04 13:56:42;;;;;;;5.43;4.93;;;;;;;;;;4979545;28;20031;-65
2022/07/04 13:59:07;;;;;;;4.72;4.50;;;;;;;;;;4989839;28;20476;-66
2022/07/04 14:01:33;;;;;;;5.55;4.13;;;;;;;;;;4986956;28;20121;-66
2022/07/04 14:03:58;;;;;;;5.10;4.68;;;;;;;;;;4988341;28;20388;-66
2022/07/04 14:06:24;;;;;;;5.38;4.57;;;;;;;;;;4987989;28;20092;-66
2022/07/04 14:08:49;;;;;;;5.60;4.40;;;;;;;;;;4987906;28;20054;-66
2022/07/04 14:11:14;;;;;;;5.50;4.13;;;;;;;;;;4986334;28;20106;-66
2022/07/04 14:13:39;;;;;;;4.80;4.32;;;;;;;;;;4987852;28;20026;-66
2022/07/04 14:16:06;;;;;;;4.80;3.92;;;;;;;;;;5002982;28;20522;-65
2022/07/04 14:18:31;;;;;;;4.40;4.20;;;;;;;;;;4979432;28;20439;-65
2022/07/04 14:20:56;;;;;;;4.10;3.83;;;;;;;;;;4988123;28;20066;-66
2022/07/04 14:23:40;;;;;;;4.18;3.97;;;;;;;;;;4983293;28;20475;-65
2022/07/04 14:26:06;;;;;;;3.92;3.72;;;;;;;;;;4988862;28;20029;-65
2022/07/04 14:28:31;;;;;;;3.88;3.67;;;;;;;;;;4988919;28;20038;-66
2022/07/04 14:30:57;;;;;;;10.25;3.63;;;;;;;;;;4989009;28;20117;-65
2022/07/04 14:33:22;;;;;;;4.22;3.90;;;;;;;;;;4986422;28;20381;-65
2022/07/04 14:35:47;;;;;;;4.13;3.83;;;;;;;;;;4987857;28;20026;-66
2022/07/04 14:38:13;;;;;;;6.47;4.18;;;;;;;;;;4988512;28;20373;-66
2022/07/04 14:40:38;;;;;;;7.80;4.60;;;;;;;;;;4988131;28;20145;-66
2022/07/04 14:43:04;;;;;;;7.50;5.25;;;;;;;;;;4986949;28;20072;-66
2022/07/04 14:45:30;;;;;;;5.93;4.88;;;;;;;;;;4975990;28;20159;-65
2022/07/04 14:47:55;;;;;;;6.80;5.00;;;;;;;;;;4988667;28;20023;-65
2022/07/04 14:50:20;;;;;;;5.43;4.05;;;;;;;;;;4987317;28;20030;-66
2022/07/04 14:52:46;;;;;;;5.75;5.35;;;;;;;;;;4986199;28;20545;-66
2022/07/04 14:55:11;;;;;;;4.65;4.30;;;;;;;;;;4978900;28;20632;-66
2022/07/04 14:57:36;;;;;;;5.07;4.55;;;;;;;;;;4987943;28;20045;-65